Latest Coastal Weather Observations for Broome Port

IDW60701

Issued at 11:55 am WST Wednesday 23 July 2014 (issued every 10 minutes, with the page automatically refreshed every 10 minutes)

About coastal observations | Map of coastal stations | Coastal observations for WA | Marine services | Other Formats
Station Details ID: 003102 Name: BROOME NTC AWS Lat: -18.00 Lon: 122.22 Height: 0.0 m
Data from the previous 72 hours. | See also: Recent months for locations in Western Australia
Date/Time
WST
Temp

°C
Wind Pressure Rain
since 9am
mm
Weather Cloud Vis
km
Sea
Height
m
Swell
Dir
 
Speed
knots
Gust
knots
hPa Trend Height
m
Period
s
Dir
22/07:30pm 22.9 WSW 8 10 1014.5 - - - - - - - - -
22/07:00pm 23.0 WSW 9 11 1014.2 - - - - - - - - -
22/06:30pm 22.9 WSW 10 11 1013.8 - - - - - - - - -
22/06:00pm 22.8 W 8 11 1013.4 - - - - - - - - -
22/05:30pm 22.9 W 7 8 1013.3 - - - - - - - - -
22/05:00pm 23.0 W 7 8 1013.1 - - - - - - - - -
22/04:30pm 23.5 W 8 10 1013.2 - - - - - - - - -
22/04:00pm 23.5 W 9 12 1013.1 - - - - - - - - -
22/03:30pm 23.9 W 10 12 1013.1 - - - - - - - - -
22/03:00pm 23.9 W 10 13 1013.1 - - - - - - - - -
22/02:30pm 23.4 WSW 8 10 1013.1 - - - - - - - - -
22/02:00pm 24.0 W 7 9 1013.2 - - - - - - - - -
22/01:30pm 23.8 W 7 10 1013.3 - - - - - - - - -
22/01:00pm 23.8 W 8 11 1013.9 - - - - - - - - -
22/12:30pm 24.0 W 7 9 1014.3 - - - - - - - - -
22/12:00pm 24.0 W 6 8 1014.7 - - - - - - - - -
22/11:30am 23.7 W 7 10 1015.1 - - - - - - - - -
22/11:00am 22.9 S 3 5 1015.5 - - - - - - - - -
22/10:30am 22.5 SE 3 4 1015.8 - - - - - - - - -
22/10:00am 22.4 SE 3 4 1016.1 - - - - - - - - -
22/09:30am 22.2 ENE 2 3 1016.3 - - - - - - - - -
22/09:00am 21.4 ENE 4 6 1016.3 - - - - - - - - -
22/08:30am 20.5 ENE 2 4 1016.4 - - - - - - - - -
22/08:00am 20.3 ENE 2 3 1016.2 - - - - - - - - -
22/07:30am 20.1 NE 1 2 1016.0 - - - - - - - - -
22/07:00am 19.9 E 1 2 1015.5 - - - - - - - - -
22/06:30am 19.8 ENE 1 3 1014.8 - - - - - - - - -
22/06:00am 20.3 NE 3 4 1014.3 - - - - - - - - -
22/05:30am 20.3 NE 3 4 1014.1 - - - - - - - - -
22/05:00am 20.5 ENE 3 4 1014.0 - - - - - - - - -
22/04:30am 20.7 CALM 0 0 1013.9 - - - - - - - - -
22/04:00am 20.9 CALM 0 0 1013.8 - - - - - - - - -
22/03:30am 20.9 CALM 0 1 1013.7 - - - - - - - - -
22/03:00am 20.8 CALM 0 3 1013.7 - - - - - - - - -
22/02:30am 21.3 CALM 0 1 1013.4 - - - - - - - - -
22/02:00am 21.8 NW 3 5 1013.4 - - - - - - - - -
22/01:30am 21.6 WNW 4 4 1013.3 - - - - - - - - -
22/01:00am 22.1 NW 3 4 1013.5 - - - - - - - - -
22/12:30am 22.2 NW 3 5 1013.6 - - - - - - - - -
22/12:00am 22.4 N 4 5 1013.7 - - - - - - - - -
 
Date/Time
WST
Temp

°C
Wind Pressure Rain
since 9am
mm
Weather Cloud Vis
km
Sea
Height
m
Swell
Dir
 
Speed
knots
Gust
knots
hPa Trend Height
m
Period
s
Dir
21/11:30pm 22.2 N 4 4 1013.8 - - - - - - - - -
21/11:00pm 22.7 NNW 5 6 1014.0 - - - - - - - - -
21/10:30pm 22.6 NNW 5 6 1014.3 - - - - - - - - -
21/10:00pm 23.2 NNW 5 7 1014.4 - - - - - - - - -
21/09:30pm 23.3 N 7 8 1014.6 - - - - - - - - -
21/09:00pm 23.3 N 6 8 1014.4 - - - - - - - - -
21/08:30pm 23.4 N 7 9 1014.3 - - - - - - - - -
21/08:00pm 23.8 NNW 9 12 1014.3 - - - - - - - - -
21/07:30pm 23.7 NNW 9 11 1014.1 - - - - - - - - -
21/07:00pm 24.0 NNW 10 12 1013.8 - - - - - - - - -
21/06:30pm 24.3 NNW 10 12 1013.6 - - - - - - - - -
21/06:00pm 24.6 NW 9 11 1013.3 - - - - - - - - -
21/05:30pm 24.9 NW 10 12 1013.0 - - - - - - - - -
21/05:00pm 25.0 NW 11 13 1012.7 - - - - - - - - -
21/04:30pm 25.1 WNW 8 10 1012.4 - - - - - - - - -
21/04:00pm 25.1 WNW 9 10 1012.1 - - - - - - - - -
21/03:30pm 24.9 WNW 10 12 1012.1 - - - - - - - - -
21/03:00pm 25.1 WNW 9 10 1012.0 - - - - - - - - -
21/02:30pm 24.5 WNW 11 13 1012.3 - - - - - - - - -
21/02:00pm 25.3 WNW 9 11 1012.3 - - - - - - - - -
21/01:30pm 25.7 WSW 6 9 1012.4 - - - - - - - - -
21/01:00pm 27.5 SSW 6 6 1012.7 - - - - - - - - -
21/12:30pm 27.0 SSW 6 7 1013.3 - - - - - - - - -
21/12:00pm 25.7 SSW 5 8 1014.0 - - - - - - - - -
21/11:30am 26.2 SSE 3 3 1014.8 - - - - - - - - -
21/11:00am 26.0 ESE 4 5 1015.4 - - - - - - - - -
21/10:30am 24.1 ENE 4 6 1015.9 - - - - - - - - -
21/10:00am 23.5 ENE 1 3 1016.3 - - - - - - - - -
21/09:30am 22.8 E 2 2 1016.6 - - - - - - - - -
21/09:00am 22.3 ESE 2 2 1016.7 - - - - - - - - -
21/08:30am 22.7 CALM 0 1 1016.8 - - - - - - - - -
21/08:00am 22.2 S 1 2 1016.9 - - - - - - - - -
21/07:30am 22.4 SSW 2 3 1016.6 - - - - - - - - -
21/07:00am 22.7 SW 3 4 1016.2 - - - - - - - - -
21/06:30am 21.8 SSW 2 2 1015.9 - - - - - - - - -
21/06:00am 22.4 WSW 2 3 1015.7 - - - - - - - - -
21/05:30am 21.7 SW 3 4 1015.4 - - - - - - - - -
21/05:00am 21.6 SSW 4 5 1015.0 - - - - - - - - -
21/04:30am 21.4 SSW 5 6 1014.7 - - - - - - - - -
21/04:00am 21.4 SSW 6 7 1014.7 - - - - - - - - -
21/03:30am 21.3 SSW 7 8 1014.4 - - - - - - - - -
21/03:00am 21.4 SW 8 9 1014.3 - - - - - - - - -
21/02:30am 21.6 SW 9 10 1014.3 - - - - - - - - -
21/02:00am 21.7 SW 9 10 1014.5 - - - - - - - - -
21/01:30am 22.2 SSW 8 9 1014.6 - - - - - - - - -
21/01:00am 22.4 SW 9 9 1014.8 - - - - - - - - -
21/12:30am 22.6 SW 10 10 1014.9 - - - - - - - - -
21/12:00am 22.6 SW 11 11 1015.0 - - - - - - - - -
 
Date/Time
WST
Temp

°C
Wind Pressure Rain
since 9am
mm
Weather Cloud Vis
km
Sea
Height
m
Swell
Dir
 
Speed
knots
Gust
knots
hPa Trend Height
m
Period
s
Dir
20/11:30pm 22.3 SW 8 10 1015.2 - - - - - - - - -
20/11:00pm 22.3 WSW 7 9 1015.3 - - - - - - - - -
20/10:30pm 22.2 W 8 10 1015.5 - - - - - - - - -
20/10:00pm 22.0 W 6 8 1015.5 - - - - - - - - -
20/09:30pm 22.4 W 7 9 1015.6 - - - - - - - - -
20/09:00pm 22.7 W 7 9 1015.5 - - - - - - - - -
20/08:30pm 22.7 W 6 8 1015.4 - - - - - - - - -
20/08:00pm 22.5 W 6 9 1015.6 - - - - - - - - -
20/07:30pm 22.7 WSW 7 9 1015.4 - - - - - - - - -
20/07:00pm 23.4 W 7 10 1015.1 - - - - - - - - -
20/06:30pm 23.5 W 8 10 1014.5 - - - - - - - - -
20/06:00pm 23.5 WNW 8 9 1014.1 - - - - - - - - -
20/05:30pm 23.6 WNW 9 12 1013.7 - - - - - - - - -
20/05:00pm 23.5 WNW 10 12 1013.4 - - - - - - - - -
20/04:30pm 24.0 WNW 11 14 1013.2 - - - - - - - - -
20/04:00pm 24.2 WNW 13 15 1012.8 - - - - - - - - -
20/03:30pm 24.3 NW 13 16 1012.8 - - - - - - - - -
20/03:00pm 23.9 WNW 15 18 1012.5 - - - - - - - - -
20/02:30pm 24.1 WNW 13 15 1012.3 - - - - - - - - -
20/02:00pm 24.0 W 15 17 1012.3 - - - - - - - - -
20/01:30pm 24.3 WNW 12 15 1012.5 - - - - - - - - -
20/01:00pm 27.1 WSW 7 9 1012.6 - - - - - - - - -
20/12:30pm 26.5 WSW 6 7 1013.1 - - - - - - - - -
20/12:00pm 26.5 SW 6 7 1013.5 - - - - - - - - -

Other Formats:

Comma delimited format used in spreadsheet applications
http://www.bom.gov.au/fwo/IDW60701/IDW60701.95202.axf

JavaScript Object Notation format (JSON) in row-major order
http://www.bom.gov.au/fwo/IDW60701/IDW60701.95202.json